Ripon, Wisconsin
Current Conditions -  °F | °C
As of 2:53 PM on Friday 21 Nov 2014 (Local Time) from KOSH Reporting Station
Clear Clear  
Wind Chill: 17°   Ceiling: Unl
Heat Index: 28°   Visibility: 10mi
Dew Point:   Wind: 15mph
Humidity: 41%   Direction: 200°SSW
Pressure: 30.24"   Gusts: 24mph
Location:  43.85°N, 88.84°W
Report Text: KOSH 212053Z 20013G21KT 10SM CLR M02/M14 A3024 RMK AO2 SLP262 T10221139 58026
Loading
Personal Weather Stations






























Interactive Weather Map New forecast layout! Learn more

10-Day Weather Forecast

Advertisements
Track Severe Weather on mobile